Terminal Aerodrome Forecast
Issued by NWS

Home | Current Version | Previous Version | Text Only | Print | Product List | Glossary On
Versions: 1 2 3 4 5 6 7 8 9 10 11 12 13 14 15 16 17 18 19 20 21 22 23
000
FTUS41 KPBZ 222320
TAFZZV
TAF
KZZV 222320Z 2300/2324 06005KT P6SM OVC090
     FM230100 06006KT P6SM VCSH OVC090
     FM230300 07009KT P6SM -RA OVC060
     FM230700 06009KT 3SM -RA OVC035
     FM230900 05009KT 2SM -RA OVC015
     FM232300 36006KT 2SM -RA OVC008=

USA.gov is the U.S. government's official web portal to all federal, state and local government web resources and services.